Time;durP1;ratioP1;P1;durP2;ratioP2;P2;SDS_P1;SDS_P2;PMS_P1;PMS_P2;Temp;Humidity;BMP_temperature;BMP_pressure;BME280_temperature;BME280_humidity;BME280_pressure;Samples;Min_cycle;Max_cycle;Signal;HPM_P1;HPM_P2
2022/01/09 00:00:39;;;;;;;;;;;5.00;84.00;;;;;;5015102;28;20285;-84
2022/01/09 00:03:05;;;;;;;;;;;5.00;84.10;;;;;;5020747;28;19972;-83
2022/01/09 00:05:31;;;;;;;;;;;4.80;84.50;;;;;;5024529;28;19964;-83
2022/01/09 00:07:56;;;;;;;;;;;4.90;84.70;;;;;;5004425;28;20333;-83
2022/01/09 00:10:22;;;;;;;;;;;4.90;84.80;;;;;;5011833;28;19910;-84
2022/01/09 00:12:48;;;;;;;;;;;5.10;84.40;;;;;;5034854;28;20365;-82
2022/01/09 00:15:14;;;;;;;;;;;5.00;84.20;;;;;;5019079;28;19913;-84
2022/01/09 00:17:39;;;;;;;;;;;4.80;85.20;;;;;;5008560;28;19909;-83
2022/01/09 00:20:05;;;;;;;;;;;4.90;85.20;;;;;;5025885;28;19921;-83
2022/01/09 00:22:52;;;;;;;;;;;4.80;85.20;;;;;;5020414;28;19979;-83
2022/01/09 00:25:22;;;;;;;;;;;4.80;85.30;;;;;;5032670;28;19921;-84
2022/01/09 00:27:48;;;;;;;;;;;4.80;85.40;;;;;;5038213;28;19959;-83
2022/01/09 00:30:14;;;;;;;;;;;4.80;85.20;;;;;;5018033;28;19909;-83
2022/01/09 00:32:40;;;;;;;;;;;5.00;84.70;;;;;;5008788;28;19914;-82
2022/01/09 00:35:06;;;;;;;;;;;4.90;84.70;;;;;;5024628;28;19964;-82
2022/01/09 00:37:31;;;;;;;;;;;4.90;84.70;;;;;;5036372;28;19913;-83
2022/01/09 00:39:57;;;;;;;;;;;4.80;85.30;;;;;;5034529;28;19936;-82
2022/01/09 00:42:23;;;;;;;;;;;4.80;85.40;;;;;;5018461;28;20012;-84
2022/01/09 00:44:48;;;;;;;;;;;4.80;84.90;;;;;;5019402;28;19909;-83
2022/01/09 00:47:14;;;;;;;;;;;4.80;85.00;;;;;;5035404;28;19963;-83
2022/01/09 00:49:39;;;;;;;;;;;4.90;85.30;;;;;;5016415;28;21471;-84
2022/01/09 00:52:05;;;;;;;;;;;4.80;85.20;;;;;;5030863;28;20378;-82
2022/01/09 00:54:30;;;;;;;;;;;4.90;85.10;;;;;;5019132;28;19913;-84
2022/01/09 00:56:56;;;;;;;;;;;5.00;84.50;;;;;;5019440;28;19916;-83
2022/01/09 00:59:21;;;;;;;;;;;5.10;84.20;;;;;;5018198;28;19917;-84
2022/01/09 01:01:46;;;;;;;;;;;5.10;84.60;;;;;;5020934;28;19917;-83
2022/01/09 01:04:12;;;;;;;;;;;5.10;84.90;;;;;;5017408;28;19913;-83
2022/01/09 01:06:37;;;;;;;;;;;5.10;84.90;;;;;;5018555;28;19940;-83
2022/01/09 01:09:03;;;;;;;;;;;5.10;85.00;;;;;;5011329;28;20313;-84
2022/01/09 01:11:29;;;;;;;;;;;5.10;85.40;;;;;;5023418;28;20003;-83
2022/01/09 01:13:54;;;;;;;;;;;5.10;85.00;;;;;;5004753;28;19913;-82
2022/01/09 01:16:20;;;;;;;;;;;5.20;85.00;;;;;;5014349;28;19917;-83
2022/01/09 01:18:48;;;;;;;;;;;5.20;85.10;;;;;;5012798;28;20010;-82
2022/01/09 01:21:14;;;;;;;;;;;5.10;85.30;;;;;;5012313;28;19921;-83
2022/01/09 01:23:40;;;;;;;;;;;5.00;85.80;;;;;;5015191;28;19920;-83
2022/01/09 01:26:05;;;;;;;;;;;4.90;86.40;;;;;;5013920;28;19925;-83
2022/01/09 01:28:31;;;;;;;;;;;4.90;86.30;;;;;;5015341;28;19913;-84
2022/01/09 01:30:57;;;;;;;;;;;5.10;85.80;;;;;;5032304;28;20451;-83
2022/01/09 01:33:22;;;;;;;;;;;4.90;85.90;;;;;;5013103;28;20033;-83
2022/01/09 01:35:48;;;;;;;;;;;4.80;86.80;;;;;;5008842;28;19971;-83
2022/01/09 01:38:14;;;;;;;;;;;4.90;86.50;;;;;;5014686;28;20063;-83
2022/01/09 01:40:40;;;;;;;;;;;4.90;86.00;;;;;;5030280;28;19924;-82
2022/01/09 01:43:06;;;;;;;;;;;4.80;86.50;;;;;;5031204;28;19913;-83
2022/01/09 01:45:31;;;;;;;;;;;4.90;86.50;;;;;;5030004;28;19920;-82
2022/01/09 01:48:05;;;;;;;;;;;4.80;86.70;;;;;;5014267;28;19914;-82
2022/01/09 01:50:35;;;;;;;;;;;4.80;87.40;;;;;;5011267;28;19913;-82
2022/01/09 01:53:01;;;;;;;;;;;4.80;86.90;;;;;;5014210;28;19925;-83
2022/01/09 01:55:28;;;;;;;;;;;4.90;87.20;;;;;;5032583;28;19960;-83
2022/01/09 01:57:54;;;;;;;;;;;5.00;87.00;;;;;;5015989;28;19924;-82
2022/01/09 02:00:20;;;;;;;;;;;4.90;87.30;;;;;;5034828;28;19992;-81
2022/01/09 02:02:45;;;;;;;;;;;4.90;87.40;;;;;;5038103;28;19920;-81
2022/01/09 02:05:11;;;;;;;;;;;4.80;86.90;;;;;;5032477;28;19917;-82
2022/01/09 02:07:38;;;;;;;;;;;4.80;87.90;;;;;;5010418;28;19913;-81
2022/01/09 02:10:07;;;;;;;;;;;4.80;87.80;;;;;;5007991;28;20004;-81
2022/01/09 02:12:35;;;;;;;;;;;4.80;87.90;;;;;;5011211;28;20322;-82
2022/01/09 02:15:01;;;;;;;;;;;4.70;88.10;;;;;;5010427;28;20575;-82
2022/01/09 02:17:26;;;;;;;;;;;4.70;88.10;;;;;;5011781;28;19913;-81
2022/01/09 02:19:55;;;;;;;;;;;4.80;88.40;;;;;;5027391;28;19966;-82
2022/01/09 02:22:23;;;;;;;;;;;4.70;88.50;;;;;;5031230;28;20340;-81
2022/01/09 02:24:49;;;;;;;;;;;4.70;88.50;;;;;;5034744;28;19913;-80
2022/01/09 02:27:15;;;;;;;;;;;4.80;88.10;;;;;;5017246;28;19935;-80
2022/01/09 02:29:41;;;;;;;;;;;4.80;88.40;;;;;;5030757;28;20004;-79
2022/01/09 02:32:07;;;;;;;;;;;4.80;88.20;;;;;;5038100;28;20404;-80
2022/01/09 02:34:33;;;;;;;;;;;4.60;88.60;;;;;;5032969;28;19921;-80
2022/01/09 02:36:58;;;;;;;;;;;4.60;89.00;;;;;;5014375;28;19917;-80
2022/01/09 02:39:24;;;;;;;;;;;4.60;89.40;;;;;;5005276;28;19949;-80
2022/01/09 02:41:49;;;;;;;;;;;4.70;89.30;;;;;;5014010;28;20358;-79
2022/01/09 02:44:15;;;;;;;;;;;4.60;89.30;;;;;;5033779;28;19937;-80
2022/01/09 02:49:19;;;;;;;;;;;4.60;89.70;;;;;;5026089;28;19979;-79
2022/01/09 02:51:46;;;;;;;;;;;4.70;89.90;;;;;;5030901;28;19921;-81
2022/01/09 02:56:56;;;;;;;;;;;4.70;89.30;;;;;;5029876;28;19952;-80
2022/01/09 02:59:21;;;;;;;;;;;4.60;89.90;;;;;;5032119;28;20481;-80
2022/01/09 03:01:47;;;;;;;;;;;4.80;89.90;;;;;;5033065;28;19928;-79
2022/01/09 03:04:12;;;;;;;;;;;4.80;89.50;;;;;;5032268;28;20343;-79
2022/01/09 03:06:38;;;;;;;;;;;4.70;89.70;;;;;;5031676;28;19949;-80
2022/01/09 03:09:06;;;;;;;;;;;4.80;90.00;;;;;;5014280;28;19996;-80
2022/01/09 03:11:32;;;;;;;;;;;4.80;89.90;;;;;;5012464;28;19963;-80
2022/01/09 03:13:57;;;;;;;;;;;4.80;89.70;;;;;;5031776;28;19984;-81
2022/01/09 03:16:23;;;;;;;;;;;4.90;89.80;;;;;;5032249;28;19913;-80
2022/01/09 03:18:48;;;;;;;;;;;5.00;90.00;;;;;;5028111;28;19917;-80
2022/01/09 03:21:14;;;;;;;;;;;5.00;90.00;;;;;;5029077;28;19925;-80
2022/01/09 03:23:39;;;;;;;;;;;5.00;90.20;;;;;;5011018;28;19932;-80
2022/01/09 03:26:08;;;;;;;;;;;5.00;90.00;;;;;;5013647;28;19917;-80
2022/01/09 03:28:34;;;;;;;;;;;5.00;89.80;;;;;;5027447;28;19921;-81
2022/01/09 03:31:00;;;;;;;;;;;5.10;89.60;;;;;;5008523;28;19921;-81
2022/01/09 03:33:25;;;;;;;;;;;5.10;89.50;;;;;;5025161;28;19913;-81
2022/01/09 03:35:51;;;;;;;;;;;5.20;89.50;;;;;;5031956;28;19920;-80
2022/01/09 03:38:16;;;;;;;;;;;5.20;89.60;;;;;;5010484;28;20376;-79
2022/01/09 03:40:41;;;;;;;;;;;5.20;88.90;;;;;;5027078;28;19965;-80
2022/01/09 03:43:07;;;;;;;;;;;5.20;89.00;;;;;;5030718;28;19987;-80
2022/01/09 03:45:32;;;;;;;;;;;5.20;89.50;;;;;;5031119;28;19969;-79
2022/01/09 03:47:58;;;;;;;;;;;5.20;89.20;;;;;;5014273;28;19928;-81
2022/01/09 03:50:24;;;;;;;;;;;5.20;89.20;;;;;;5011230;28;19967;-80
2022/01/09 03:52:50;;;;;;;;;;;5.20;89.20;;;;;;5032092;28;20655;-81
2022/01/09 03:55:17;;;;;;;;;;;5.20;89.40;;;;;;5011241;28;20344;-80
2022/01/09 03:57:43;;;;;;;;;;;5.20;89.40;;;;;;5028919;28;19957;-81
2022/01/09 04:00:13;;;;;;;;;;;5.10;89.00;;;;;;5032771;28;19924;-82
2022/01/09 04:02:39;;;;;;;;;;;5.10;89.20;;;;;;5014545;28;20012;-81
2022/01/09 04:05:05;;;;;;;;;;;5.10;89.60;;;;;;5035779;28;21360;-83
2022/01/09 04:07:31;;;;;;;;;;;5.00;89.90;;;;;;5043524;28;19940;-82
2022/01/09 04:09:56;;;;;;;;;;;5.00;89.90;;;;;;5017558;28;19921;-83
2022/01/09 04:12:33;;;;;;;;;;;5.00;89.60;;;;;;5012379;28;20421;-84
2022/01/09 04:15:00;;;;;;;;;;;4.90;90.10;;;;;;5040399;28;19917;-83
2022/01/09 04:20:10;;;;;;;;;;;4.90;90.50;;;;;;5030136;28;19960;-83
2022/01/09 04:22:35;;;;;;;;;;;4.90;90.10;;;;;;5036045;28;19921;-82
2022/01/09 04:25:01;;;;;;;;;;;4.80;90.60;;;;;;5015712;28;19956;-83
2022/01/09 04:27:26;;;;;;;;;;;4.90;90.80;;;;;;5034669;28;19913;-82
2022/01/09 04:29:52;;;;;;;;;;;4.90;90.80;;;;;;5016537;28;19909;-83
2022/01/09 04:32:18;;;;;;;;;;;4.90;91.00;;;;;;5017713;28;19912;-83
2022/01/09 04:34:43;;;;;;;;;;;5.00;90.70;;;;;;5016609;28;19984;-81
2022/01/09 04:37:09;;;;;;;;;;;5.00;90.80;;;;;;5016149;28;19921;-83
2022/01/09 04:39:34;;;;;;;;;;;5.00;90.90;;;;;;5004279;28;19917;-83
2022/01/09 04:42:00;;;;;;;;;;;5.00;91.20;;;;;;5026260;28;19940;-83
2022/01/09 04:44:25;;;;;;;;;;;5.10;91.10;;;;;;5026060;28;19913;-83
2022/01/09 04:46:57;;;;;;;;;;;5.10;91.30;;;;;;5033934;28;19921;-82
2022/01/09 04:49:26;;;;;;;;;;;5.10;91.40;;;;;;5007067;28;19913;-82
2022/01/09 04:51:52;;;;;;;;;;;5.10;91.60;;;;;;5016903;28;19928;-83
2022/01/09 04:54:18;;;;;;;;;;;5.20;91.60;;;;;;5018022;28;19909;-83
2022/01/09 04:56:43;;;;;;;;;;;5.20;91.70;;;;;;5016825;28;19986;-83
2022/01/09 04:59:08;;;;;;;;;;;5.20;91.70;;;;;;5013925;28;19925;-83
2022/01/09 05:01:34;;;;;;;;;;;5.20;91.80;;;;;;5027252;28;19917;-82
2022/01/09 05:03:59;;;;;;;;;;;5.20;91.90;;;;;;5018990;28;19925;-82
2022/01/09 05:06:25;;;;;;;;;;;5.20;92.20;;;;;;5016817;28;19928;-85
2022/01/09 05:08:51;;;;;;;;;;;5.30;92.30;;;;;;5032743;28;19967;-83
2022/01/09 05:11:16;;;;;;;;;;;5.40;92.10;;;;;;5032880;28;20553;-81
2022/01/09 05:13:42;;;;;;;;;;;5.30;91.90;;;;;;5017189;28;19913;-82
2022/01/09 05:16:08;;;;;;;;;;;5.40;91.80;;;;;;5032115;28;19936;-84
2022/01/09 05:18:41;;;;;;;;;;;5.50;91.80;;;;;;5016954;28;19921;-82
2022/01/09 05:21:07;;;;;;;;;;;5.50;91.90;;;;;;5022226;28;19921;-80
2022/01/09 05:23:33;;;;;;;;;;;5.60;91.90;;;;;;5021485;28;19920;-82
2022/01/09 05:25:58;;;;;;;;;;;5.60;92.00;;;;;;5035164;28;19913;-83
2022/01/09 05:28:24;;;;;;;;;;;5.60;91.70;;;;;;5014244;28;19952;-82
2022/01/09 05:30:49;;;;;;;;;;;5.60;91.70;;;;;;5025931;28;19909;-82
2022/01/09 05:33:15;;;;;;;;;;;5.70;91.90;;;;;;5016801;28;19959;-83
2022/01/09 05:35:40;;;;;;;;;;;5.60;91.90;;;;;;5016126;28;20399;-80
2022/01/09 05:38:06;;;;;;;;;;;5.70;92.00;;;;;;5035058;28;20035;-81
2022/01/09 05:40:31;;;;;;;;;;;5.60;91.90;;;;;;5015363;28;19913;-83
2022/01/09 05:42:57;;;;;;;;;;;5.70;91.90;;;;;;5017758;28;20273;-83
2022/01/09 05:45:22;;;;;;;;;;;5.70;91.60;;;;;;5021939;28;19914;-82
2022/01/09 05:47:48;;;;;;;;;;;5.80;91.00;;;;;;5012835;28;19921;-82
2022/01/09 05:50:13;;;;;;;;;;;5.70;90.90;;;;;;5012594;28;20012;-84
2022/01/09 05:52:39;;;;;;;;;;;5.60;90.50;;;;;;5037634;28;19909;-84
2022/01/09 05:55:04;;;;;;;;;;;5.70;90.80;;;;;;5017225;28;19951;-84
2022/01/09 05:57:30;;;;;;;;;;;5.60;91.00;;;;;;5017606;28;19909;-84
2022/01/09 05:59:55;;;;;;;;;;;5.60;90.80;;;;;;5001226;28;19909;-82
2022/01/09 06:02:21;;;;;;;;;;;5.60;91.00;;;;;;5018761;28;19917;-85
2022/01/09 06:04:46;;;;;;;;;;;5.50;91.30;;;;;;5018347;28;20392;-83
2022/01/09 06:07:12;;;;;;;;;;;5.50;91.40;;;;;;5018408;28;19920;-83
2022/01/09 06:09:37;;;;;;;;;;;5.50;91.50;;;;;;5027975;28;19975;-85
2022/01/09 06:12:03;;;;;;;;;;;5.60;91.80;;;;;;5020108;28;19913;-83
2022/01/09 06:14:28;;;;;;;;;;;5.60;91.80;;;;;;5038413;28;19975;-83
2022/01/09 06:16:54;;;;;;;;;;;5.60;91.70;;;;;;5020974;28;19921;-84
2022/01/09 06:19:19;;;;;;;;;;;5.60;91.90;;;;;;5022668;28;19923;-84
2022/01/09 06:21:45;;;;;;;;;;;5.60;91.90;;;;;;5039110;28;19992;-85
2022/01/09 06:24:10;;;;;;;;;;;5.60;91.80;;;;;;5048775;28;19913;-88
2022/01/09 06:26:36;;;;;;;;;;;5.40;91.50;;;;;;5030285;28;19913;-84
2022/01/09 06:29:02;;;;;;;;;;;5.10;89.70;;;;;;5017883;28;19957;-82
2022/01/09 06:31:27;;;;;;;;;;;4.60;89.00;;;;;;5018931;28;19920;-83
2022/01/09 06:33:53;;;;;;;;;;;4.30;90.80;;;;;;5018963;28;20362;-84
2022/01/09 06:36:18;;;;;;;;;;;4.20;91.00;;;;;;5025503;28;19913;-85
2022/01/09 06:38:44;;;;;;;;;;;4.30;91.60;;;;;;5028773;28;19935;-86
2022/01/09 06:41:09;;;;;;;;;;;4.50;92.00;;;;;;5035801;28;19924;-84
2022/01/09 06:43:35;;;;;;;;;;;4.60;92.20;;;;;;5038517;28;19921;-85
2022/01/09 06:46:00;;;;;;;;;;;4.80;92.50;;;;;;5021176;28;19979;-84
2022/01/09 06:48:26;;;;;;;;;;;4.80;92.50;;;;;;5025885;28;19993;-85
2022/01/09 06:50:51;;;;;;;;;;;4.90;92.40;;;;;;5027659;28;19917;-84
2022/01/09 06:53:16;;;;;;;;;;;5.00;92.20;;;;;;5020835;28;19913;-85
2022/01/09 06:55:43;;;;;;;;;;;5.10;92.00;;;;;;5020679;28;19940;-85
2022/01/09 06:58:09;;;;;;;;;;;5.10;92.00;;;;;;5022247;28;19925;-85
2022/01/09 07:00:34;;;;;;;;;;;5.10;91.70;;;;;;5020697;28;19921;-84
2022/01/09 07:03:00;;;;;;;;;;;5.10;91.60;;;;;;5034454;28;19921;-84
2022/01/09 07:05:25;;;;;;;;;;;5.10;91.50;;;;;;5034331;28;20378;-85
2022/01/09 07:07:51;;;;;;;;;;;5.20;91.60;;;;;;5017504;28;19952;-85
2022/01/09 07:10:16;;;;;;;;;;;5.20;91.50;;;;;;5015857;28;19944;-84
2022/01/09 07:12:42;;;;;;;;;;;5.20;91.30;;;;;;5034488;28;19909;-87
2022/01/09 07:15:08;;;;;;;;;;;5.20;91.20;;;;;;5020346;28;20315;-85
2022/01/09 07:17:33;;;;;;;;;;;5.20;91.20;;;;;;5019399;28;19909;-84
2022/01/09 07:19:59;;;;;;;;;;;5.20;91.30;;;;;;5013458;28;19935;-84
2022/01/09 07:22:25;;;;;;;;;;;5.20;91.10;;;;;;5010517;28;19917;-86
2022/01/09 07:24:50;;;;;;;;;;;5.20;91.00;;;;;;5017798;28;19917;-84
2022/01/09 07:27:16;;;;;;;;;;;5.30;91.20;;;;;;5018945;28;19917;-85
2022/01/09 07:29:41;;;;;;;;;;;5.30;91.10;;;;;;5034848;28;19996;-85
2022/01/09 07:32:07;;;;;;;;;;;5.20;90.60;;;;;;5018593;28;19998;-85
2022/01/09 07:34:32;;;;;;;;;;;5.20;90.40;;;;;;5018672;28;19974;-85
2022/01/09 07:36:58;;;;;;;;;;;5.20;90.60;;;;;;5017876;28;19909;-85
2022/01/09 07:39:23;;;;;;;;;;;5.30;90.60;;;;;;5034817;28;19967;-84
2022/01/09 07:41:50;;;;;;;;;;;5.20;90.20;;;;;;5028960;28;19917;-85
2022/01/09 07:44:15;;;;;;;;;;;5.20;90.20;;;;;;5035209;28;20277;-86
2022/01/09 07:46:41;;;;;;;;;;;5.30;90.30;;;;;;5016600;28;19936;-85
2022/01/09 07:49:06;;;;;;;;;;;5.30;89.80;;;;;;5032802;28;19923;-86
2022/01/09 07:51:32;;;;;;;;;;;5.20;89.80;;;;;;5016578;28;19916;-86
2022/01/09 07:53:57;;;;;;;;;;;5.20;89.70;;;;;;5033432;28;19918;-87
2022/01/09 07:56:23;;;;;;;;;;;5.20;89.40;;;;;;5025693;28;19937;-86
2022/01/09 07:58:48;;;;;;;;;;;5.10;89.50;;;;;;5022127;28;19909;-85
2022/01/09 08:01:14;;;;;;;;;;;5.20;89.60;;;;;;5023110;28;19931;-86
2022/01/09 08:03:39;;;;;;;;;;;5.20;89.60;;;;;;5026247;28;19913;-89
2022/01/09 08:06:05;;;;;;;;;;;5.20;89.90;;;;;;5045169;28;19917;-85
2022/01/09 08:08:30;;;;;;;;;;;5.20;89.80;;;;;;5041953;28;19993;-87
2022/01/09 08:10:56;;;;;;;;;;;5.20;89.80;;;;;;5040902;28;19913;-85
2022/01/09 08:13:21;;;;;;;;;;;5.30;89.70;;;;;;5027147;28;19924;-84
2022/01/09 08:15:47;;;;;;;;;;;5.20;89.40;;;;;;5044736;28;19913;-87
2022/01/09 08:18:13;;;;;;;;;;;5.20;89.20;;;;;;5042198;28;19921;-84
2022/01/09 08:20:38;;;;;;;;;;;5.20;89.40;;;;;;5023705;28;19939;-86
2022/01/09 08:23:04;;;;;;;;;;;5.20;89.10;;;;;;5015922;28;19920;-87
2022/01/09 08:25:30;;;;;;;;;;;5.20;89.40;;;;;;5019643;28;19913;-87
2022/01/09 08:27:55;;;;;;;;;;;5.20;89.30;;;;;;5030359;28;19913;-88
2022/01/09 08:30:21;;;;;;;;;;;5.20;89.20;;;;;;5048769;28;19914;-89
2022/01/09 08:32:47;;;;;;;;;;;5.20;89.60;;;;;;5023801;28;19928;-88
2022/01/09 08:35:13;;;;;;;;;;;5.20;89.50;;;;;;5032201;28;20374;-89
2022/01/09 08:37:44;;;;;;;;;;;5.30;89.50;;;;;;5014900;28;19916;-89
2022/01/09 08:40:11;;;;;;;;;;;5.30;89.10;;;;;;5010430;28;19955;-89
2022/01/09 08:42:36;;;;;;;;;;;5.30;89.20;;;;;;5014020;28;19919;-89
2022/01/09 08:45:03;;;;;;;;;;;5.30;89.10;;;;;;5014127;28;19987;-89
2022/01/09 08:47:36;;;;;;;;;;;5.30;89.20;;;;;;5010963;28;20328;-89
2022/01/09 08:50:03;;;;;;;;;;;5.30;89.20;;;;;;5013867;28;19909;-89
2022/01/09 08:52:30;;;;;;;;;;;5.30;89.20;;;;;;5015184;28;19909;-89
2022/01/09 08:54:55;;;;;;;;;;;5.30;89.00;;;;;;5013936;28;20035;-89
2022/01/09 08:57:24;;;;;;;;;;;5.40;88.90;;;;;;5017774;28;19921;-89
2022/01/09 08:59:50;;;;;;;;;;;5.30;88.70;;;;;;5046780;28;19937;-89
2022/01/09 09:02:17;;;;;;;;;;;5.30;89.00;;;;;;5037727;28;19913;-89
2022/01/09 09:04:43;;;;;;;;;;;5.40;88.70;;;;;;5013352;28;20083;-89
2022/01/09 09:07:09;;;;;;;;;;;5.30;88.90;;;;;;5011194;28;20368;-88
2022/01/09 09:09:45;;;;;;;;;;;5.30;89.30;;;;;;5013585;28;19913;-89
2022/01/09 09:12:11;;;;;;;;;;;5.40;88.90;;;;;;5013797;28;19913;-87
2022/01/09 09:14:39;;;;;;;;;;;5.30;89.20;;;;;;5012500;28;19913;-89
2022/01/09 09:17:07;;;;;;;;;;;5.40;89.30;;;;;;5013553;28;20372;-88
2022/01/09 09:19:34;;;;;;;;;;;5.40;88.80;;;;;;5010310;28;20004;-89
2022/01/09 09:22:00;;;;;;;;;;;5.40;88.60;;;;;;5010201;28;19983;-89
2022/01/09 09:24:26;;;;;;;;;;;5.50;88.40;;;;;;5009492;28;19951;-89
2022/01/09 09:26:51;;;;;;;;;;;5.50;88.70;;;;;;5027626;22;19968;-85
2022/01/09 09:29:18;;;;;;;;;;;5.50;88.10;;;;;;5045395;28;19913;-85
2022/01/09 09:31:43;;;;;;;;;;;5.50;88.00;;;;;;5067593;28;19923;-86
2022/01/09 09:34:09;;;;;;;;;;;5.50;87.70;;;;;;5046061;28;19920;-88
2022/01/09 09:36:35;;;;;;;;;;;5.50;87.90;;;;;;5055383;28;19938;-86
2022/01/09 09:39:03;;;;;;;;;;;5.50;87.70;;;;;;5059611;28;20555;-85
2022/01/09 09:41:28;;;;;;;;;;;5.60;87.70;;;;;;5069356;28;19935;-85
2022/01/09 09:43:54;;;;;;;;;;;5.60;87.40;;;;;;5052901;28;19912;-89
2022/01/09 09:46:20;;;;;;;;;;;5.60;87.20;;;;;;5063953;28;19916;-88
2022/01/09 09:48:46;;;;;;;;;;;5.60;87.40;;;;;;5054541;28;19913;-87
2022/01/09 09:51:11;;;;;;;;;;;5.50;87.30;;;;;;5056890;28;19919;-87
2022/01/09 09:53:37;;;;;;;;;;;5.60;87.50;;;;;;5062566;28;19913;-86
2022/01/09 09:56:02;;;;;;;;;;;5.50;87.20;;;;;;5054265;28;19951;-88
2022/01/09 09:58:28;;;;;;;;;;;5.60;88.10;;;;;;5049320;28;19920;-88
2022/01/09 10:00:55;;;;;;;;;;;5.60;87.00;;;;;;5049927;28;19920;-88
2022/01/09 10:03:28;;;;;;;;;;;5.60;87.30;;;;;;5057904;28;20004;-89
2022/01/09 10:05:55;;;;;;;;;;;5.60;86.90;;;;;;5066768;28;19924;-88
2022/01/09 10:08:21;;;;;;;;;;;5.70;86.70;;;;;;5058372;28;19909;-87
2022/01/09 10:10:50;;;;;;;;;;;5.80;86.30;;;;;;5061462;28;19912;-89
2022/01/09 10:13:17;;;;;;;;;;;5.80;86.40;;;;;;5054770;28;19989;-89
2022/01/09 10:15:52;;;;;;;;;;;5.70;86.30;;;;;;5045523;28;21556;-89
2022/01/09 10:18:37;;;;;;;;;;;5.70;86.60;;;;;;5065492;28;19923;-88
2022/01/09 10:21:07;;;;;;;;;;;5.80;86.70;;;;;;5048332;28;19916;-87
2022/01/09 10:23:32;;;;;;;;;;;5.90;86.30;;;;;;5050247;28;19912;-86
2022/01/09 10:26:08;;;;;;;;;;;5.90;86.30;;;;;;5052690;28;19920;-88
2022/01/09 10:28:49;;;;;;;;;;;5.90;85.90;;;;;;5047474;28;19954;-88
2022/01/09 10:31:18;;;;;;;;;;;5.90;85.60;;;;;;5052606;28;20006;-87
2022/01/09 10:34:01;;;;;;;;;;;5.90;86.10;;;;;;5051509;28;20774;-89
2022/01/09 10:36:34;;;;;;;;;;;5.90;86.00;;;;;;5055601;28;19916;-90
2022/01/09 10:39:04;;;;;;;;;;;6.00;86.20;;;;;;5050442;28;20069;-86
2022/01/09 10:41:44;;;;;;;;;;;5.90;86.00;;;;;;5056922;28;19920;-86
2022/01/09 10:44:13;;;;;;;;;;;5.90;85.40;;;;;;5082925;28;19912;-87
2022/01/09 10:46:41;;;;;;;;;;;5.90;85.80;;;;;;5069123;28;21531;-87
2022/01/09 10:49:06;;;;;;;;;;;5.90;85.90;;;;;;5055525;28;19924;-89
2022/01/09 10:51:32;;;;;;;;;;;6.00;85.70;;;;;;5054691;28;19916;-88
2022/01/09 10:53:59;;;;;;;;;;;6.00;85.80;;;;;;5041059;28;19970;-88
2022/01/09 10:56:25;;;;;;;;;;;6.00;86.30;;;;;;5057248;28;19919;-90
2022/01/09 10:58:51;;;;;;;;;;;6.00;85.80;;;;;;5059479;28;19959;-89
2022/01/09 11:01:17;;;;;;;;;;;6.00;85.70;;;;;;5056613;28;19947;-88
2022/01/09 11:03:44;;;;;;;;;;;6.00;85.50;;;;;;5051477;28;19936;-89
2022/01/09 11:06:10;;;;;;;;;;;6.00;86.00;;;;;;5056153;28;19913;-89
2022/01/09 11:08:36;;;;;;;;;;;5.90;85.90;;;;;;5058300;28;20039;-89
2022/01/09 11:11:07;;;;;;;;;;;6.00;86.10;;;;;;5061785;28;20323;-89
2022/01/09 11:13:33;;;;;;;;;;;6.10;86.00;;;;;;5061465;28;19959;-88
2022/01/09 11:18:43;;;;;;;;;;;6.10;85.80;;;;;;5066312;28;19965;-88
2022/01/09 11:21:09;;;;;;;;;;;6.00;85.60;;;;;;5060049;28;19974;-85
2022/01/09 11:23:49;;;;;;;;;;;6.00;85.50;;;;;;5060535;28;19920;-85
2022/01/09 11:26:15;;;;;;;;;;;6.00;85.30;;;;;;5059677;28;19912;-85
2022/01/09 11:28:42;;;;;;;;;;;6.10;84.80;;;;;;5078721;28;19995;-86
2022/01/09 11:31:28;;;;;;;;;;;6.20;85.80;;;;;;5056860;28;19921;-87
2022/01/09 11:34:12;;;;;;;;;;;6.30;85.20;;;;;;5064819;28;20366;-88
2022/01/09 11:36:44;;;;;;;;;;;6.40;85.30;;;;;;5052827;28;19920;-88
2022/01/09 11:39:16;;;;;;;;;;;6.50;84.60;;;;;;5067343;28;19919;-87
2022/01/09 11:41:42;;;;;;;;;;;6.60;84.60;;;;;;5055715;28;19917;-88
2022/01/09 11:44:10;;;;;;;;;;;6.60;84.00;;;;;;5056470;28;19912;-87
2022/01/09 11:46:55;;;;;;;;;;;6.60;83.90;;;;;;5049150;28;20337;-91
2022/01/09 11:49:21;;;;;;;;;;;6.50;84.00;;;;;;5053878;28;20355;-88
2022/01/09 11:51:50;;;;;;;;;;;6.50;83.70;;;;;;5069597;28;19903;-90
2022/01/09 11:54:17;;;;;;;;;;;6.40;84.00;;;;;;5077222;28;19980;-90
2022/01/09 11:56:42;;;;;;;;;;;6.20;84.30;;;;;;5064839;28;19920;-89
2022/01/09 11:59:16;;;;;;;;;;;6.20;83.90;;;;;;5058379;28;20003;-89
2022/01/09 12:01:42;;;;;;;;;;;6.20;84.10;;;;;;5066268;28;19916;-86
2022/01/09 12:04:28;;;;;;;;;;;6.20;84.20;;;;;;5057648;28;19976;-88
2022/01/09 12:06:56;;;;;;;;;;;6.10;84.60;;;;;;5082064;28;20361;-87
2022/01/09 12:09:37;;;;;;;;;;;6.20;85.40;;;;;;5082770;28;19951;-87
2022/01/09 12:12:06;;;;;;;;;;;6.20;85.20;;;;;;5089836;28;19924;-88
2022/01/09 12:14:41;;;;;;;;;;;6.30;84.70;;;;;;5068057;28;19923;-88
2022/01/09 12:17:27;;;;;;;;;;;6.30;84.20;;;;;;5055039;28;19939;-88
2022/01/09 12:20:11;;;;;;;;;;;6.30;84.50;;;;;;5067059;28;19925;-88
2022/01/09 12:22:43;;;;;;;;;;;6.30;84.50;;;;;;5060095;28;19931;-85
2022/01/09 12:25:10;;;;;;;;;;;6.30;84.50;;;;;;5055863;28;20294;-89
2022/01/09 12:27:35;;;;;;;;;;;6.40;83.90;;;;;;5054030;28;19917;-84
2022/01/09 12:30:07;;;;;;;;;;;6.40;84.50;;;;;;5065882;28;19908;-85
2022/01/09 12:32:41;;;;;;;;;;;6.40;84.10;;;;;;5065850;28;19974;-85
2022/01/09 12:35:17;;;;;;;;;;;6.40;84.00;;;;;;5052104;28;20003;-84
2022/01/09 12:37:44;;;;;;;;;;;6.30;83.90;;;;;;5063114;28;19913;-84
2022/01/09 12:40:10;;;;;;;;;;;6.30;83.20;;;;;;5067410;28;20481;-84
2022/01/09 12:42:35;;;;;;;;;;;6.30;84.10;;;;;;5064602;28;19927;-85
2022/01/09 12:45:01;;;;;;;;;;;6.30;83.80;;;;;;5068587;28;19908;-85
2022/01/09 12:47:37;;;;;;;;;;;6.30;83.70;;;;;;5083604;28;19923;-85
2022/01/09 12:50:03;;;;;;;;;;;6.30;83.80;;;;;;5061549;28;20354;-85
2022/01/09 12:52:28;;;;;;;;;;;6.30;83.30;;;;;;5061963;28;19909;-85
2022/01/09 12:55:07;;;;;;;;;;;6.30;82.20;;;;;;5061007;28;20003;-84
2022/01/09 12:57:48;;;;;;;;;;;6.40;83.10;;;;;;5060953;28;19913;-84
2022/01/09 13:00:14;;;;;;;;;;;6.40;82.30;;;;;;5060228;28;19912;-85
2022/01/09 13:02:40;;;;;;;;;;;6.50;83.30;;;;;;5061831;28;19928;-85
2022/01/09 13:05:05;;;;;;;;;;;6.60;83.40;;;;;;5060038;28;20554;-85
2022/01/09 13:07:31;;;;;;;;;;;6.60;83.60;;;;;;5065087;28;19913;-84
2022/01/09 13:09:56;;;;;;;;;;;6.60;82.30;;;;;;5074248;28;19915;-85
2022/01/09 13:12:23;;;;;;;;;;;6.50;83.50;;;;;;5069649;28;19912;-84
2022/01/09 13:14:48;;;;;;;;;;;6.50;83.00;;;;;;5094919;28;19907;-84
2022/01/09 13:17:16;;;;;;;;;;;6.60;82.20;;;;;;5088565;28;19912;-85
2022/01/09 13:19:41;;;;;;;;;;;6.60;82.60;;;;;;5063001;28;19909;-85
2022/01/09 13:22:07;;;;;;;;;;;6.60;81.90;;;;;;5064344;28;19923;-85
2022/01/09 13:24:32;;;;;;;;;;;6.50;81.30;;;;;;5075379;28;19999;-85
2022/01/09 13:26:59;;;;;;;;;;;6.50;82.00;;;;;;5084202;28;19979;-85
2022/01/09 13:29:32;;;;;;;;;;;6.50;81.80;;;;;;5082548;28;19912;-85
2022/01/09 13:32:07;;;;;;;;;;;6.40;82.20;;;;;;5066650;28;19909;-85
2022/01/09 13:34:34;;;;;;;;;;;6.40;82.80;;;;;;5046950;28;19913;-85
2022/01/09 13:37:01;;;;;;;;;;;6.40;82.70;;;;;;5066297;28;19912;-85
2022/01/09 13:39:28;;;;;;;;;;;6.40;82.20;;;;;;5064551;28;19913;-85
2022/01/09 13:41:58;;;;;;;;;;;6.50;81.90;;;;;;5065766;28;19913;-86
2022/01/09 13:44:30;;;;;;;;;;;6.50;82.10;;;;;;5064255;28;20490;-84
2022/01/09 13:47:15;;;;;;;;;;;6.60;82.30;;;;;;5065236;28;19921;-84
2022/01/09 13:49:47;;;;;;;;;;;6.70;82.10;;;;;;5064002;28;20327;-84
2022/01/09 13:52:13;;;;;;;;;;;6.70;81.60;;;;;;5065328;28;19916;-83
2022/01/09 13:54:39;;;;;;;;;;;6.60;81.90;;;;;;5064973;28;19915;-84
2022/01/09 13:57:06;;;;;;;;;;;6.70;82.30;;;;;;5069614;28;20278;-84
2022/01/09 13:59:36;;;;;;;;;;;6.60;82.20;;;;;;5065224;28;19998;-84
2022/01/09 14:02:01;;;;;;;;;;;6.60;82.30;;;;;;5065650;28;19917;-85
2022/01/09 14:04:27;;;;;;;;;;;6.60;82.90;;;;;;5065240;28;19915;-84
2022/01/09 14:06:56;;;;;;;;;;;6.60;82.90;;;;;;5065441;28;19909;-84
2022/01/09 14:09:28;;;;;;;;;;;6.70;82.00;;;;;;5071492;28;20003;-85
2022/01/09 14:12:12;;;;;;;;;;;6.70;81.90;;;;;;5053035;28;19962;-84
2022/01/09 14:14:39;;;;;;;;;;;6.50;82.90;;;;;;5038094;28;19909;-84
2022/01/09 14:17:23;;;;;;;;;;;6.40;83.00;;;;;;5038358;28;19909;-85
2022/01/09 14:19:49;;;;;;;;;;;6.30;83.60;;;;;;5069367;28;19928;-86
2022/01/09 14:22:14;;;;;;;;;;;6.20;83.70;;;;;;5071269;28;19921;-85
2022/01/09 14:25:15;;;;;;;;;;;6.20;83.70;;;;;;5069179;28;20359;-85
2022/01/09 14:27:44;;;;;;;;;;;6.10;84.10;;;;;;5024482;28;19917;-84
2022/01/09 14:30:22;;;;;;;;;;;6.00;83.70;;;;;;5042551;28;19920;-85
2022/01/09 14:32:51;;;;;;;;;;;6.00;84.20;;;;;;5086666;28;20003;-85
2022/01/09 14:35:26;;;;;;;;;;;5.90;84.60;;;;;;5063196;28;19912;-85
2022/01/09 14:37:52;;;;;;;;;;;6.00;83.80;;;;;;5081934;28;19935;-85
2022/01/09 14:40:18;;;;;;;;;;;5.90;84.60;;;;;;5064407;28;19909;-85
2022/01/09 14:42:44;;;;;;;;;;;5.80;84.90;;;;;;5081427;28;20025;-85